sensor_id;sensor_type;location;lat;lon;timestamp;P1;durP1;ratioP1;P2;durP2;ratioP2
19016;SDS011;9641;51.494;6.670;2023-03-01T00:00:52;12.67;;;7.27;;
19016;SDS011;9641;51.494;6.670;2023-03-01T00:03:18;13.07;;;6.93;;
19016;SDS011;9641;51.494;6.670;2023-03-01T00:05:47;11.83;;;6.83;;
19016;SDS011;9641;51.494;6.670;2023-03-01T00:08:13;11.50;;;7.00;;
19016;SDS011;9641;51.494;6.670;2023-03-01T00:10:40;11.53;;;6.73;;
19016;SDS011;9641;51.494;6.670;2023-03-01T00:13:07;8.50;;;6.30;;
19016;SDS011;9641;51.494;6.670;2023-03-01T00:15:37;8.80;;;6.97;;
19016;SDS011;9641;51.494;6.670;2023-03-01T00:18:04;14.07;;;7.40;;
19016;SDS011;9641;51.494;6.670;2023-03-01T00:20:31;8.47;;;6.87;;
19016;SDS011;9641;51.494;6.670;2023-03-01T00:22:59;9.40;;;6.63;;
19016;SDS011;9641;51.494;6.670;2023-03-01T00:25:26;13.43;;;7.90;;
19016;SDS011;9641;51.494;6.670;2023-03-01T00:27:53;11.90;;;7.60;;
19016;SDS011;9641;51.494;6.670;2023-03-01T00:30:20;15.10;;;7.90;;
19016;SDS011;9641;51.494;6.670;2023-03-01T00:32:47;10.57;;;7.10;;
19016;SDS011;9641;51.494;6.670;2023-03-01T00:35:13;12.07;;;8.17;;
19016;SDS011;9641;51.494;6.670;2023-03-01T00:37:40;14.23;;;7.40;;
19016;SDS011;9641;51.494;6.670;2023-03-01T00:40:09;11.20;;;7.73;;
19016;SDS011;9641;51.494;6.670;2023-03-01T00:42:37;11.30;;;6.60;;
19016;SDS011;9641;51.494;6.670;2023-03-01T00:45:04;9.90;;;7.07;;
19016;SDS011;9641;51.494;6.670;2023-03-01T00:47:33;10.50;;;6.93;;
19016;SDS011;9641;51.494;6.670;2023-03-01T00:49:59;9.30;;;7.20;;
19016;SDS011;9641;51.494;6.670;2023-03-01T00:52:26;10.87;;;6.67;;
19016;SDS011;9641;51.494;6.670;2023-03-01T00:54:53;9.60;;;7.03;;
19016;SDS011;9641;51.494;6.670;2023-03-01T00:57:21;21.43;;;9.37;;
19016;SDS011;9641;51.494;6.670;2023-03-01T00:59:48;12.20;;;7.70;;
19016;SDS011;9641;51.494;6.670;2023-03-01T01:02:17;10.13;;;6.97;;
19016;SDS011;9641;51.494;6.670;2023-03-01T01:04:44;11.00;;;7.57;;
19016;SDS011;9641;51.494;6.670;2023-03-01T01:07:11;12.17;;;8.17;;
19016;SDS011;9641;51.494;6.670;2023-03-01T01:09:38;11.87;;;8.23;;
19016;SDS011;9641;51.494;6.670;2023-03-01T01:12:05;12.07;;;7.07;;
19016;SDS011;9641;51.494;6.670;2023-03-01T01:14:34;10.03;;;6.67;;
19016;SDS011;9641;51.494;6.670;2023-03-01T01:17:01;10.73;;;7.30;;
19016;SDS011;9641;51.494;6.670;2023-03-01T01:19:28;16.43;;;8.07;;
19016;SDS011;9641;51.494;6.670;2023-03-01T01:21:55;11.23;;;7.30;;
19016;SDS011;9641;51.494;6.670;2023-03-01T01:24:22;9.93;;;6.97;;
19016;SDS011;9641;51.494;6.670;2023-03-01T01:26:49;10.33;;;7.60;;
19016;SDS011;9641;51.494;6.670;2023-03-01T01:29:16;13.47;;;7.53;;
19016;SDS011;9641;51.494;6.670;2023-03-01T01:31:44;10.30;;;6.83;;
19016;SDS011;9641;51.494;6.670;2023-03-01T01:34:13;11.87;;;6.73;;
19016;SDS011;9641;51.494;6.670;2023-03-01T01:36:40;10.20;;;7.00;;
19016;SDS011;9641;51.494;6.670;2023-03-01T01:39:08;8.87;;;6.83;;
19016;SDS011;9641;51.494;6.670;2023-03-01T01:41:38;10.03;;;6.37;;
19016;SDS011;9641;51.494;6.670;2023-03-01T01:44:11;9.37;;;6.43;;
19016;SDS011;9641;51.494;6.670;2023-03-01T01:46:41;9.07;;;6.43;;
19016;SDS011;9641;51.494;6.670;2023-03-01T01:49:13;13.27;;;7.33;;
19016;SDS011;9641;51.494;6.670;2023-03-01T01:51:45;13.77;;;7.17;;
19016;SDS011;9641;51.494;6.670;2023-03-01T01:54:15;10.77;;;7.20;;
19016;SDS011;9641;51.494;6.670;2023-03-01T01:56:47;11.90;;;7.23;;
19016;SDS011;9641;51.494;6.670;2023-03-01T01:59:17;11.17;;;6.93;;
19016;SDS011;9641;51.494;6.670;2023-03-01T02:01:44;12.80;;;6.80;;
19016;SDS011;9641;51.494;6.670;2023-03-01T02:04:12;10.37;;;6.70;;
19016;SDS011;9641;51.494;6.670;2023-03-01T02:06:39;14.43;;;8.43;;
19016;SDS011;9641;51.494;6.670;2023-03-01T02:09:13;15.93;;;7.57;;
19016;SDS011;9641;51.494;6.670;2023-03-01T02:11:41;11.27;;;7.50;;
19016;SDS011;9641;51.494;6.670;2023-03-01T02:14:10;9.23;;;6.93;;
19016;SDS011;9641;51.494;6.670;2023-03-01T02:16:37;12.83;;;6.87;;
19016;SDS011;9641;51.494;6.670;2023-03-01T02:19:04;9.30;;;7.50;;
19016;SDS011;9641;51.494;6.670;2023-03-01T02:21:37;11.83;;;7.97;;
19016;SDS011;9641;51.494;6.670;2023-03-01T02:24:10;8.97;;;6.57;;
19016;SDS011;9641;51.494;6.670;2023-03-01T02:26:48;14.30;;;8.03;;
19016;SDS011;9641;51.494;6.670;2023-03-01T02:29:20;11.90;;;6.63;;
19016;SDS011;9641;51.494;6.670;2023-03-01T02:31:47;13.80;;;7.90;;
19016;SDS011;9641;51.494;6.670;2023-03-01T02:34:15;14.50;;;7.27;;
19016;SDS011;9641;51.494;6.670;2023-03-01T02:36:44;10.53;;;7.57;;
19016;SDS011;9641;51.494;6.670;2023-03-01T02:39:14;13.37;;;7.63;;
19016;SDS011;9641;51.494;6.670;2023-03-01T02:41:47;11.70;;;7.53;;
19016;SDS011;9641;51.494;6.670;2023-03-01T02:44:16;11.90;;;7.13;;
19016;SDS011;9641;51.494;6.670;2023-03-01T02:46:45;14.13;;;7.97;;
19016;SDS011;9641;51.494;6.670;2023-03-01T02:49:17;11.03;;;7.40;;
19016;SDS011;9641;51.494;6.670;2023-03-01T02:51:48;9.97;;;7.63;;
19016;SDS011;9641;51.494;6.670;2023-03-01T02:54:28;12.07;;;7.93;;
19016;SDS011;9641;51.494;6.670;2023-03-01T02:56:58;15.60;;;7.63;;
19016;SDS011;9641;51.494;6.670;2023-03-01T02:59:29;11.97;;;7.07;;
19016;SDS011;9641;51.494;6.670;2023-03-01T03:02:01;11.97;;;6.90;;
19016;SDS011;9641;51.494;6.670;2023-03-01T03:04:28;12.67;;;7.50;;
19016;SDS011;9641;51.494;6.670;2023-03-01T03:06:55;9.60;;;6.67;;
19016;SDS011;9641;51.494;6.670;2023-03-01T03:09:22;11.10;;;7.43;;
19016;SDS011;9641;51.494;6.670;2023-03-01T03:11:48;14.00;;;7.77;;
19016;SDS011;9641;51.494;6.670;2023-03-01T03:14:16;10.07;;;7.30;;
19016;SDS011;9641;51.494;6.670;2023-03-01T03:16:47;13.43;;;7.30;;
19016;SDS011;9641;51.494;6.670;2023-03-01T03:19:16;11.13;;;7.80;;
19016;SDS011;9641;51.494;6.670;2023-03-01T03:21:43;15.57;;;7.33;;
19016;SDS011;9641;51.494;6.670;2023-03-01T03:24:10;13.17;;;8.40;;
19016;SDS011;9641;51.494;6.670;2023-03-01T03:26:37;13.73;;;7.53;;
19016;SDS011;9641;51.494;6.670;2023-03-01T03:29:04;11.13;;;7.17;;
19016;SDS011;9641;51.494;6.670;2023-03-01T03:31:31;11.73;;;7.30;;
19016;SDS011;9641;51.494;6.670;2023-03-01T03:33:57;13.43;;;8.30;;
19016;SDS011;9641;51.494;6.670;2023-03-01T03:36:26;13.60;;;7.87;;
19016;SDS011;9641;51.494;6.670;2023-03-01T03:38:53;10.23;;;7.40;;
19016;SDS011;9641;51.494;6.670;2023-03-01T03:41:20;11.50;;;7.60;;
19016;SDS011;9641;51.494;6.670;2023-03-01T03:43:47;15.37;;;8.27;;
19016;SDS011;9641;51.494;6.670;2023-03-01T03:46:14;16.87;;;8.33;;
19016;SDS011;9641;51.494;6.670;2023-03-01T03:48:43;12.43;;;7.57;;
19016;SDS011;9641;51.494;6.670;2023-03-01T03:51:12;11.53;;;7.57;;
19016;SDS011;9641;51.494;6.670;2023-03-01T03:53:43;16.30;;;7.77;;
19016;SDS011;9641;51.494;6.670;2023-03-01T03:56:10;11.30;;;7.37;;
19016;SDS011;9641;51.494;6.670;2023-03-01T03:58:37;12.30;;;7.47;;
19016;SDS011;9641;51.494;6.670;2023-03-01T04:01:04;16.13;;;8.70;;
19016;SDS011;9641;51.494;6.670;2023-03-01T04:03:32;16.63;;;7.50;;
19016;SDS011;9641;51.494;6.670;2023-03-01T04:06:00;12.47;;;7.80;;
19016;SDS011;9641;51.494;6.670;2023-03-01T04:08:27;16.50;;;7.90;;
19016;SDS011;9641;51.494;6.670;2023-03-01T04:10:58;10.83;;;7.83;;
19016;SDS011;9641;51.494;6.670;2023-03-01T04:13:46;11.77;;;7.77;;
19016;SDS011;9641;51.494;6.670;2023-03-01T04:16:13;16.33;;;8.17;;
19016;SDS011;9641;51.494;6.670;2023-03-01T04:18:40;15.07;;;8.10;;
19016;SDS011;9641;51.494;6.670;2023-03-01T04:21:07;11.73;;;7.83;;
19016;SDS011;9641;51.494;6.670;2023-03-01T04:23:34;11.80;;;7.37;;
19016;SDS011;9641;51.494;6.670;2023-03-01T04:26:02;12.40;;;6.93;;
19016;SDS011;9641;51.494;6.670;2023-03-01T04:28:30;14.47;;;7.93;;
19016;SDS011;9641;51.494;6.670;2023-03-01T04:31:01;11.53;;;8.03;;
19016;SDS011;9641;51.494;6.670;2023-03-01T04:33:37;20.53;;;8.53;;
19016;SDS011;9641;51.494;6.670;2023-03-01T04:36:05;14.03;;;7.90;;
19016;SDS011;9641;51.494;6.670;2023-03-01T04:38:34;12.67;;;8.43;;
19016;SDS011;9641;51.494;6.670;2023-03-01T04:41:03;15.80;;;8.97;;
19016;SDS011;9641;51.494;6.670;2023-03-01T04:43:30;14.03;;;8.97;;
19016;SDS011;9641;51.494;6.670;2023-03-01T04:46:02;21.50;;;10.80;;
19016;SDS011;9641;51.494;6.670;2023-03-01T04:48:31;15.93;;;10.07;;
19016;SDS011;9641;51.494;6.670;2023-03-01T04:50:58;19.90;;;10.73;;
19016;SDS011;9641;51.494;6.670;2023-03-01T04:53:26;18.87;;;9.23;;
19016;SDS011;9641;51.494;6.670;2023-03-01T04:55:53;16.33;;;9.47;;
19016;SDS011;9641;51.494;6.670;2023-03-01T04:58:22;15.77;;;9.80;;
19016;SDS011;9641;51.494;6.670;2023-03-01T05:00:49;16.47;;;8.77;;
19016;SDS011;9641;51.494;6.670;2023-03-01T05:03:20;13.67;;;8.60;;
19016;SDS011;9641;51.494;6.670;2023-03-01T05:05:48;11.93;;;8.37;;
19016;SDS011;9641;51.494;6.670;2023-03-01T05:08:16;11.57;;;7.83;;
19016;SDS011;9641;51.494;6.670;2023-03-01T05:10:44;14.57;;;8.97;;
19016;SDS011;9641;51.494;6.670;2023-03-01T05:13:12;13.07;;;8.10;;
19016;SDS011;9641;51.494;6.670;2023-03-01T05:15:53;14.40;;;8.77;;
19016;SDS011;9641;51.494;6.670;2023-03-01T05:18:21;10.73;;;7.97;;
19016;SDS011;9641;51.494;6.670;2023-03-01T05:20:51;12.80;;;8.53;;
19016;SDS011;9641;51.494;6.670;2023-03-01T05:23:18;14.13;;;8.30;;
19016;SDS011;9641;51.494;6.670;2023-03-01T05:25:44;12.93;;;8.43;;
19016;SDS011;9641;51.494;6.670;2023-03-01T05:28:11;13.40;;;7.90;;
19016;SDS011;9641;51.494;6.670;2023-03-01T05:30:39;14.50;;;9.20;;
19016;SDS011;9641;51.494;6.670;2023-03-01T05:33:07;15.57;;;8.77;;
19016;SDS011;9641;51.494;6.670;2023-03-01T05:35:39;10.67;;;7.53;;
19016;SDS011;9641;51.494;6.670;2023-03-01T05:38:07;15.17;;;8.13;;
19016;SDS011;9641;51.494;6.670;2023-03-01T05:40:34;18.33;;;8.40;;
19016;SDS011;9641;51.494;6.670;2023-03-01T05:43:01;14.47;;;8.07;;
19016;SDS011;9641;51.494;6.670;2023-03-01T05:45:30;14.07;;;8.23;;
19016;SDS011;9641;51.494;6.670;2023-03-01T05:47:58;15.13;;;8.43;;
19016;SDS011;9641;51.494;6.670;2023-03-01T05:50:27;16.00;;;8.60;;
19016;SDS011;9641;51.494;6.670;2023-03-01T05:52:59;12.70;;;8.33;;
19016;SDS011;9641;51.494;6.670;2023-03-01T05:55:28;16.00;;;8.60;;
19016;SDS011;9641;51.494;6.670;2023-03-01T05:57:57;18.60;;;8.67;;
19016;SDS011;9641;51.494;6.670;2023-03-01T06:00:25;15.03;;;7.57;;
19016;SDS011;9641;51.494;6.670;2023-03-01T06:02:53;14.03;;;8.33;;
19016;SDS011;9641;51.494;6.670;2023-03-01T06:05:20;13.60;;;8.70;;
19016;SDS011;9641;51.494;6.670;2023-03-01T06:07:49;14.03;;;8.50;;
19016;SDS011;9641;51.494;6.670;2023-03-01T06:10:16;17.17;;;7.70;;
19016;SDS011;9641;51.494;6.670;2023-03-01T06:12:45;16.77;;;8.43;;
19016;SDS011;9641;51.494;6.670;2023-03-01T06:15:13;13.97;;;8.40;;
19016;SDS011;9641;51.494;6.670;2023-03-01T06:17:42;12.17;;;8.00;;
19016;SDS011;9641;51.494;6.670;2023-03-01T06:20:11;17.20;;;8.50;;
19016;SDS011;9641;51.494;6.670;2023-03-01T06:22:40;12.43;;;8.83;;
19016;SDS011;9641;51.494;6.670;2023-03-01T06:25:09;14.27;;;8.33;;
19016;SDS011;9641;51.494;6.670;2023-03-01T06:27:37;14.73;;;9.00;;
19016;SDS011;9641;51.494;6.670;2023-03-01T06:30:05;10.73;;;7.53;;
19016;SDS011;9641;51.494;6.670;2023-03-01T06:32:33;13.27;;;8.03;;
19016;SDS011;9641;51.494;6.670;2023-03-01T06:35:00;13.90;;;8.70;;
19016;SDS011;9641;51.494;6.670;2023-03-01T06:37:26;14.37;;;9.40;;
19016;SDS011;9641;51.494;6.670;2023-03-01T06:39:53;12.77;;;9.30;;
19016;SDS011;9641;51.494;6.670;2023-03-01T06:42:21;14.07;;;8.60;;
19016;SDS011;9641;51.494;6.670;2023-03-01T06:44:48;16.10;;;8.70;;
19016;SDS011;9641;51.494;6.670;2023-03-01T06:47:15;16.07;;;8.80;;
19016;SDS011;9641;51.494;6.670;2023-03-01T06:49:42;12.50;;;8.83;;
19016;SDS011;9641;51.494;6.670;2023-03-01T06:52:09;14.37;;;8.83;;
19016;SDS011;9641;51.494;6.670;2023-03-01T06:54:35;14.37;;;9.00;;
19016;SDS011;9641;51.494;6.670;2023-03-01T06:57:02;20.27;;;9.30;;
19016;SDS011;9641;51.494;6.670;2023-03-01T06:59:30;21.43;;;10.40;;
19016;SDS011;9641;51.494;6.670;2023-03-01T07:01:57;14.23;;;9.80;;
19016;SDS011;9641;51.494;6.670;2023-03-01T07:04:24;14.20;;;8.50;;
19016;SDS011;9641;51.494;6.670;2023-03-01T07:06:53;16.07;;;9.47;;
19016;SDS011;9641;51.494;6.670;2023-03-01T07:09:20;19.27;;;9.90;;
19016;SDS011;9641;51.494;6.670;2023-03-01T07:11:47;15.73;;;9.83;;
19016;SDS011;9641;51.494;6.670;2023-03-01T07:14:15;19.40;;;9.87;;
19016;SDS011;9641;51.494;6.670;2023-03-01T07:16:43;15.83;;;9.23;;
19016;SDS011;9641;51.494;6.670;2023-03-01T07:19:10;14.47;;;9.57;;
19016;SDS011;9641;51.494;6.670;2023-03-01T07:21:37;14.73;;;9.23;;
19016;SDS011;9641;51.494;6.670;2023-03-01T07:24:05;18.80;;;10.07;;
19016;SDS011;9641;51.494;6.670;2023-03-01T07:26:32;23.50;;;9.60;;
19016;SDS011;9641;51.494;6.670;2023-03-01T07:28:59;17.47;;;9.77;;
19016;SDS011;9641;51.494;6.670;2023-03-01T07:31:26;16.10;;;10.27;;
19016;SDS011;9641;51.494;6.670;2023-03-01T07:33:55;22.27;;;9.93;;
19016;SDS011;9641;51.494;6.670;2023-03-01T07:36:23;18.60;;;9.53;;
19016;SDS011;9641;51.494;6.670;2023-03-01T07:38:51;16.20;;;9.57;;
19016;SDS011;9641;51.494;6.670;2023-03-01T07:41:17;18.13;;;10.33;;
19016;SDS011;9641;51.494;6.670;2023-03-01T07:43:45;13.47;;;8.40;;
19016;SDS011;9641;51.494;6.670;2023-03-01T07:46:11;19.93;;;9.30;;
19016;SDS011;9641;51.494;6.670;2023-03-01T07:48:39;18.97;;;10.30;;
19016;SDS011;9641;51.494;6.670;2023-03-01T07:51:07;15.73;;;9.63;;
19016;SDS011;9641;51.494;6.670;2023-03-01T07:53:34;14.93;;;9.17;;
19016;SDS011;9641;51.494;6.670;2023-03-01T07:56:02;25.10;;;10.70;;
19016;SDS011;9641;51.494;6.670;2023-03-01T07:58:30;16.17;;;9.80;;
19016;SDS011;9641;51.494;6.670;2023-03-01T08:01:00;21.03;;;10.47;;
19016;SDS011;9641;51.494;6.670;2023-03-01T08:03:27;15.10;;;9.47;;
19016;SDS011;9641;51.494;6.670;2023-03-01T08:05:54;14.33;;;8.63;;
19016;SDS011;9641;51.494;6.670;2023-03-01T08:08:23;17.33;;;9.43;;
19016;SDS011;9641;51.494;6.670;2023-03-01T08:10:49;13.33;;;9.40;;
19016;SDS011;9641;51.494;6.670;2023-03-01T08:13:16;20.23;;;10.87;;
19016;SDS011;9641;51.494;6.670;2023-03-01T08:15:47;19.13;;;9.67;;
19016;SDS011;9641;51.494;6.670;2023-03-01T08:18:14;17.87;;;9.90;;
19016;SDS011;9641;51.494;6.670;2023-03-01T08:20:41;17.77;;;9.30;;
19016;SDS011;9641;51.494;6.670;2023-03-01T08:23:08;18.93;;;9.47;;
19016;SDS011;9641;51.494;6.670;2023-03-01T08:25:45;13.27;;;8.23;;
19016;SDS011;9641;51.494;6.670;2023-03-01T08:28:11;11.80;;;8.70;;
19016;SDS011;9641;51.494;6.670;2023-03-01T08:30:38;15.43;;;8.97;;
19016;SDS011;9641;51.494;6.670;2023-03-01T08:33:08;14.27;;;9.40;;
19016;SDS011;9641;51.494;6.670;2023-03-01T08:35:35;16.50;;;8.57;;
19016;SDS011;9641;51.494;6.670;2023-03-01T08:38:02;13.80;;;8.77;;
19016;SDS011;9641;51.494;6.670;2023-03-01T08:40:29;14.70;;;8.43;;
19016;SDS011;9641;51.494;6.670;2023-03-01T08:42:58;13.17;;;8.77;;
19016;SDS011;9641;51.494;6.670;2023-03-01T08:45:25;14.63;;;8.13;;
19016;SDS011;9641;51.494;6.670;2023-03-01T08:47:52;14.33;;;7.77;;
19016;SDS011;9641;51.494;6.670;2023-03-01T08:50:19;15.60;;;7.90;;
19016;SDS011;9641;51.494;6.670;2023-03-01T08:52:49;20.13;;;8.17;;
19016;SDS011;9641;51.494;6.670;2023-03-01T08:55:16;14.03;;;8.43;;
19016;SDS011;9641;51.494;6.670;2023-03-01T08:57:43;17.07;;;9.47;;
19016;SDS011;9641;51.494;6.670;2023-03-01T09:00:12;13.43;;;7.73;;
19016;SDS011;9641;51.494;6.670;2023-03-01T09:02:40;12.67;;;8.27;;
19016;SDS011;9641;51.494;6.670;2023-03-01T09:05:08;13.83;;;8.53;;
19016;SDS011;9641;51.494;6.670;2023-03-01T09:07:35;12.57;;;7.43;;
19016;SDS011;9641;51.494;6.670;2023-03-01T09:10:02;17.20;;;8.00;;
19016;SDS011;9641;51.494;6.670;2023-03-01T09:12:29;13.10;;;7.83;;
19016;SDS011;9641;51.494;6.670;2023-03-01T09:14:55;12.47;;;7.53;;
19016;SDS011;9641;51.494;6.670;2023-03-01T09:17:24;11.23;;;7.47;;
19016;SDS011;9641;51.494;6.670;2023-03-01T09:19:50;14.57;;;7.70;;
19016;SDS011;9641;51.494;6.670;2023-03-01T09:22:17;12.93;;;8.23;;
19016;SDS011;9641;51.494;6.670;2023-03-01T09:24:44;13.40;;;7.57;;
19016;SDS011;9641;51.494;6.670;2023-03-01T09:27:11;13.23;;;8.33;;
19016;SDS011;9641;51.494;6.670;2023-03-01T09:29:39;11.33;;;6.90;;
19016;SDS011;9641;51.494;6.670;2023-03-01T09:32:06;20.17;;;8.00;;
19016;SDS011;9641;51.494;6.670;2023-03-01T09:34:35;15.17;;;7.80;;
19016;SDS011;9641;51.494;6.670;2023-03-01T09:37:22;11.57;;;7.30;;
19016;SDS011;9641;51.494;6.670;2023-03-01T09:39:51;12.37;;;7.30;;
19016;SDS011;9641;51.494;6.670;2023-03-01T09:42:18;10.43;;;6.93;;
19016;SDS011;9641;51.494;6.670;2023-03-01T09:44:49;11.93;;;7.40;;
19016;SDS011;9641;51.494;6.670;2023-03-01T09:47:23;11.37;;;7.27;;
19016;SDS011;9641;51.494;6.670;2023-03-01T09:50:00;18.60;;;8.50;;
19016;SDS011;9641;51.494;6.670;2023-03-01T09:52:33;14.57;;;7.77;;
19016;SDS011;9641;51.494;6.670;2023-03-01T09:55:07;14.63;;;7.63;;
19016;SDS011;9641;51.494;6.670;2023-03-01T09:57:39;13.43;;;7.77;;
19016;SDS011;9641;51.494;6.670;2023-03-01T10:00:15;13.87;;;8.13;;
19016;SDS011;9641;51.494;6.670;2023-03-01T10:02:58;18.33;;;8.80;;
19016;SDS011;9641;51.494;6.670;2023-03-01T10:05:38;13.97;;;7.70;;
19016;SDS011;9641;51.494;6.670;2023-03-01T10:08:24;12.47;;;7.73;;
19016;SDS011;9641;51.494;6.670;2023-03-01T10:10:56;14.93;;;8.30;;
19016;SDS011;9641;51.494;6.670;2023-03-01T10:13:28;16.20;;;7.93;;
19016;SDS011;9641;51.494;6.670;2023-03-01T10:16:01;15.00;;;7.73;;
19016;SDS011;9641;51.494;6.670;2023-03-01T10:18:36;14.57;;;7.53;;
19016;SDS011;9641;51.494;6.670;2023-03-01T10:21:12;13.03;;;7.73;;
19016;SDS011;9641;51.494;6.670;2023-03-01T10:23:41;13.63;;;7.70;;
19016;SDS011;9641;51.494;6.670;2023-03-01T10:26:16;12.67;;;6.93;;
19016;SDS011;9641;51.494;6.670;2023-03-01T10:28:54;11.13;;;6.77;;
19016;SDS011;9641;51.494;6.670;2023-03-01T10:31:27;15.03;;;7.77;;
19016;SDS011;9641;51.494;6.670;2023-03-01T10:34:07;11.13;;;7.37;;
19016;SDS011;9641;51.494;6.670;2023-03-01T10:36:37;12.77;;;7.07;;
19016;SDS011;9641;51.494;6.670;2023-03-01T10:39:10;13.27;;;8.17;;
19016;SDS011;9641;51.494;6.670;2023-03-01T10:41:45;14.27;;;7.87;;
19016;SDS011;9641;51.494;6.670;2023-03-01T10:44:36;17.53;;;7.67;;
19016;SDS011;9641;51.494;6.670;2023-03-01T10:47:08;13.80;;;8.43;;
19016;SDS011;9641;51.494;6.670;2023-03-01T10:49:52;15.33;;;8.17;;
19016;SDS011;9641;51.494;6.670;2023-03-01T10:52:24;17.20;;;7.97;;
19016;SDS011;9641;51.494;6.670;2023-03-01T10:54:54;11.40;;;7.67;;
19016;SDS011;9641;51.494;6.670;2023-03-01T10:57:30;13.13;;;7.63;;
19016;SDS011;9641;51.494;6.670;2023-03-01T11:00:10;9.97;;;6.20;;
19016;SDS011;9641;51.494;6.670;2023-03-01T11:02:50;13.13;;;7.00;;
19016;SDS011;9641;51.494;6.670;2023-03-01T11:05:29;9.97;;;6.33;;
19016;SDS011;9641;51.494;6.670;2023-03-01T11:08:00;9.80;;;6.17;;
19016;SDS011;9641;51.494;6.670;2023-03-01T11:10:29;13.37;;;6.90;;
19016;SDS011;9641;51.494;6.670;2023-03-01T11:13:07;9.53;;;7.10;;
19016;SDS011;9641;51.494;6.670;2023-03-01T11:15:40;13.47;;;6.90;;
19016;SDS011;9641;51.494;6.670;2023-03-01T11:18:17;9.67;;;6.17;;
19016;SDS011;9641;51.494;6.670;2023-03-01T11:20:46;13.13;;;6.30;;
19016;SDS011;9641;51.494;6.670;2023-03-01T11:23:17;10.37;;;5.63;;
19016;SDS011;9641;51.494;6.670;2023-03-01T11:25:47;10.30;;;5.80;;
19016;SDS011;9641;51.494;6.670;2023-03-01T11:28:21;7.97;;;5.73;;
19016;SDS011;9641;51.494;6.670;2023-03-01T11:30:50;10.43;;;6.27;;
19016;SDS011;9641;51.494;6.670;2023-03-01T11:33:24;9.83;;;5.90;;
19016;SDS011;9641;51.494;6.670;2023-03-01T11:36:00;9.70;;;5.93;;
19016;SDS011;9641;51.494;6.670;2023-03-01T11:38:34;9.90;;;5.73;;
19016;SDS011;9641;51.494;6.670;2023-03-01T11:41:04;10.57;;;6.07;;
19016;SDS011;9641;51.494;6.670;2023-03-01T11:43:35;9.93;;;5.60;;
19016;SDS011;9641;51.494;6.670;2023-03-01T11:46:35;7.73;;;5.43;;
19016;SDS011;9641;51.494;6.670;2023-03-01T11:49:30;10.97;;;5.90;;
19016;SDS011;9641;51.494;6.670;2023-03-01T11:52:08;9.37;;;5.87;;
19016;SDS011;9641;51.494;6.670;2023-03-01T11:54:50;9.27;;;5.83;;
19016;SDS011;9641;51.494;6.670;2023-03-01T11:57:34;10.63;;;5.77;;
19016;SDS011;9641;51.494;6.670;2023-03-01T12:00:15;8.10;;;5.27;;
19016;SDS011;9641;51.494;6.670;2023-03-01T12:03:22;9.87;;;5.70;;
19016;SDS011;9641;51.494;6.670;2023-03-01T12:09:02;8.10;;;5.53;;
19016;SDS011;9641;51.494;6.670;2023-03-01T12:11:41;10.30;;;5.67;;
19016;SDS011;9641;51.494;6.670;2023-03-01T12:14:35;9.23;;;5.90;;
19016;SDS011;9641;51.494;6.670;2023-03-01T12:20:17;7.43;;;5.30;;
19016;SDS011;9641;51.494;6.670;2023-03-01T12:22:54;9.93;;;5.50;;
19016;SDS011;9641;51.494;6.670;2023-03-01T12:25:34;8.30;;;5.83;;
19016;SDS011;9641;51.494;6.670;2023-03-01T12:31:01;10.03;;;5.93;;
19016;SDS011;9641;51.494;6.670;2023-03-01T12:34:00;11.53;;;5.97;;
19016;SDS011;9641;51.494;6.670;2023-03-01T12:36:41;7.67;;;5.03;;
19016;SDS011;9641;51.494;6.670;2023-03-01T12:42:20;9.73;;;5.60;;
19016;SDS011;9641;51.494;6.670;2023-03-01T12:44:59;9.57;;;5.43;;
19016;SDS011;9641;51.494;6.670;2023-03-01T12:47:52;10.20;;;5.43;;
19016;SDS011;9641;51.494;6.670;2023-03-01T12:50:33;13.43;;;5.90;;
19016;SDS011;9641;51.494;6.670;2023-03-01T12:55:47;23.80;;;7.63;;
19016;SDS011;9641;51.494;6.670;2023-03-01T12:58:17;13.50;;;6.47;;
19016;SDS011;9641;51.494;6.670;2023-03-01T13:01:00;8.77;;;5.10;;
19016;SDS011;9641;51.494;6.670;2023-03-01T13:03:44;6.70;;;4.63;;
19016;SDS011;9641;51.494;6.670;2023-03-01T13:06:23;8.43;;;5.63;;
19016;SDS011;9641;51.494;6.670;2023-03-01T13:09:04;9.80;;;5.00;;
19016;SDS011;9641;51.494;6.670;2023-03-01T13:11:41;10.40;;;5.50;;
19016;SDS011;9641;51.494;6.670;2023-03-01T13:14:34;8.63;;;5.67;;
19016;SDS011;9641;51.494;6.670;2023-03-01T13:17:32;11.53;;;5.43;;
19016;SDS011;9641;51.494;6.670;2023-03-01T13:22:43;8.17;;;5.40;;
19016;SDS011;9641;51.494;6.670;2023-03-01T13:25:14;9.37;;;5.83;;
19016;SDS011;9641;51.494;6.670;2023-03-01T13:27:43;9.20;;;5.77;;
19016;SDS011;9641;51.494;6.670;2023-03-01T13:39:30;8.17;;;6.00;;
19016;SDS011;9641;51.494;6.670;2023-03-01T13:42:25;7.83;;;5.63;;
19016;SDS011;9641;51.494;6.670;2023-03-01T13:45:04;8.37;;;5.60;;
19016;SDS011;9641;51.494;6.670;2023-03-01T13:47:54;15.57;;;6.57;;
19016;SDS011;9641;51.494;6.670;2023-03-01T13:50:25;9.03;;;5.93;;
19016;SDS011;9641;51.494;6.670;2023-03-01T13:52:55;9.27;;;5.63;;
19016;SDS011;9641;51.494;6.670;2023-03-01T13:55:27;8.13;;;5.47;;
19016;SDS011;9641;51.494;6.670;2023-03-01T13:58:01;8.63;;;5.77;;
19016;SDS011;9641;51.494;6.670;2023-03-01T14:00:39;13.00;;;6.63;;
19016;SDS011;9641;51.494;6.670;2023-03-01T14:03:10;8.50;;;5.60;;
19016;SDS011;9641;51.494;6.670;2023-03-01T14:05:40;8.53;;;5.77;;
19016;SDS011;9641;51.494;6.670;2023-03-01T14:08:21;9.67;;;5.67;;
19016;SDS011;9641;51.494;6.670;2023-03-01T14:10:54;10.27;;;5.90;;
19016;SDS011;9641;51.494;6.670;2023-03-01T14:13:47;10.67;;;6.07;;
19016;SDS011;9641;51.494;6.670;2023-03-01T14:16:30;9.17;;;6.43;;
19016;SDS011;9641;51.494;6.670;2023-03-01T14:19:14;9.57;;;6.23;;
19016;SDS011;9641;51.494;6.670;2023-03-01T14:21:45;10.93;;;6.40;;
19016;SDS011;9641;51.494;6.670;2023-03-01T14:24:20;9.73;;;5.73;;
19016;SDS011;9641;51.494;6.670;2023-03-01T14:26:50;10.63;;;6.10;;
19016;SDS011;9641;51.494;6.670;2023-03-01T14:29:24;10.07;;;6.60;;
19016;SDS011;9641;51.494;6.670;2023-03-01T14:31:51;11.23;;;6.00;;
19016;SDS011;9641;51.494;6.670;2023-03-01T14:34:19;9.33;;;6.40;;
19016;SDS011;9641;51.494;6.670;2023-03-01T14:36:47;9.30;;;6.23;;
19016;SDS011;9641;51.494;6.670;2023-03-01T14:39:18;12.67;;;6.30;;
19016;SDS011;9641;51.494;6.670;2023-03-01T14:41:47;11.43;;;6.70;;
19016;SDS011;9641;51.494;6.670;2023-03-01T14:44:16;15.30;;;6.50;;
19016;SDS011;9641;51.494;6.670;2023-03-01T14:46:51;8.30;;;6.17;;
19016;SDS011;9641;51.494;6.670;2023-03-01T14:49:20;13.67;;;6.23;;
19016;SDS011;9641;51.494;6.670;2023-03-01T14:52:03;9.23;;;6.07;;
19016;SDS011;9641;51.494;6.670;2023-03-01T14:54:35;10.23;;;6.00;;
19016;SDS011;9641;51.494;6.670;2023-03-01T14:57:13;8.90;;;6.67;;
19016;SDS011;9641;51.494;6.670;2023-03-01T14:59:42;12.00;;;6.60;;
19016;SDS011;9641;51.494;6.670;2023-03-01T15:02:11;14.37;;;7.00;;
19016;SDS011;9641;51.494;6.670;2023-03-01T15:04:42;11.17;;;6.50;;
19016;SDS011;9641;51.494;6.670;2023-03-01T15:07:11;10.80;;;6.70;;
19016;SDS011;9641;51.494;6.670;2023-03-01T15:09:40;9.73;;;6.40;;
19016;SDS011;9641;51.494;6.670;2023-03-01T15:12:31;9.57;;;6.57;;
19016;SDS011;9641;51.494;6.670;2023-03-01T15:18:12;11.37;;;6.40;;
19016;SDS011;9641;51.494;6.670;2023-03-01T15:20:43;10.50;;;6.50;;
19016;SDS011;9641;51.494;6.670;2023-03-01T15:26:05;13.33;;;6.70;;
19016;SDS011;9641;51.494;6.670;2023-03-01T15:28:43;10.67;;;7.10;;
19016;SDS011;9641;51.494;6.670;2023-03-01T15:31:25;13.27;;;7.77;;
19016;SDS011;9641;51.494;6.670;2023-03-01T15:34:10;10.23;;;6.57;;
19016;SDS011;9641;51.494;6.670;2023-03-01T15:37:04;8.37;;;5.37;;
19016;SDS011;9641;51.494;6.670;2023-03-01T15:39:42;10.03;;;6.23;;
19016;SDS011;9641;51.494;6.670;2023-03-01T15:45:11;10.13;;;6.40;;
19016;SDS011;9641;51.494;6.670;2023-03-01T15:47:49;10.00;;;5.60;;
19016;SDS011;9641;51.494;6.670;2023-03-01T15:50:27;8.97;;;5.83;;